sensor_id;sensor_type;location;lat;lon;timestamp;pressure;altitude;pressure_sealevel;temperature;humidity
75646;BME280;64237;52.438;13.240;2023-07-29T00:02:08;100406.03;;;16.42;100.00
75646;BME280;64237;52.438;13.240;2023-07-29T00:04:33;100387.09;;;16.34;100.00
75646;BME280;64237;52.438;13.240;2023-07-29T00:06:59;100394.94;;;16.32;100.00
75646;BME280;64237;52.438;13.240;2023-07-29T00:09:24;100395.78;;;16.33;100.00
75646;BME280;64237;52.438;13.240;2023-07-29T00:11:49;100389.34;;;16.32;100.00
75646;BME280;64237;52.438;13.240;2023-07-29T00:14:14;100390.69;;;16.40;100.00
75646;BME280;64237;52.438;13.240;2023-07-29T00:16:40;100393.78;;;16.38;100.00
75646;BME280;64237;52.438;13.240;2023-07-29T00:19:06;100388.25;;;16.28;100.00
75646;BME280;64237;52.438;13.240;2023-07-29T00:21:31;100382.69;;;16.28;100.00
75646;BME280;64237;52.438;13.240;2023-07-29T00:23:57;100386.84;;;16.31;100.00
75646;BME280;64237;52.438;13.240;2023-07-29T00:26:23;100391.69;;;16.20;100.00
75646;BME280;64237;52.438;13.240;2023-07-29T00:28:48;100392.53;;;16.16;100.00
75646;BME280;64237;52.438;13.240;2023-07-29T00:31:13;100400.06;;;16.20;100.00
75646;BME280;64237;52.438;13.240;2023-07-29T00:33:39;100388.06;;;16.20;100.00
75646;BME280;64237;52.438;13.240;2023-07-29T00:36:04;100393.94;;;16.18;100.00
75646;BME280;64237;52.438;13.240;2023-07-29T00:38:29;100389.50;;;16.12;100.00
75646;BME280;64237;52.438;13.240;2023-07-29T00:40:57;100393.97;;;16.08;100.00
75646;BME280;64237;52.438;13.240;2023-07-29T00:43:23;100381.66;;;16.14;100.00
75646;BME280;64237;52.438;13.240;2023-07-29T00:45:49;100383.38;;;16.10;100.00
75646;BME280;64237;52.438;13.240;2023-07-29T00:48:14;100382.81;;;16.08;100.00
75646;BME280;64237;52.438;13.240;2023-07-29T00:50:40;100387.91;;;16.01;100.00
75646;BME280;64237;52.438;13.240;2023-07-29T00:53:05;100377.81;;;16.05;100.00
75646;BME280;64237;52.438;13.240;2023-07-29T00:55:31;100375.56;;;16.07;100.00
75646;BME280;64237;52.438;13.240;2023-07-29T00:57:57;100375.09;;;15.95;100.00
75646;BME280;64237;52.438;13.240;2023-07-29T01:00:22;100367.84;;;15.94;100.00
75646;BME280;64237;52.438;13.240;2023-07-29T01:02:48;100368.13;;;15.92;100.00
75646;BME280;64237;52.438;13.240;2023-07-29T01:05:15;100361.41;;;15.98;100.00
75646;BME280;64237;52.438;13.240;2023-07-29T01:13:24;100350.56;;;15.92;100.00
75646;BME280;64237;52.438;13.240;2023-07-29T01:15:55;100342.75;;;15.94;100.00
75646;BME280;64237;52.438;13.240;2023-07-29T01:18:32;100341.63;;;15.90;100.00
75646;BME280;64237;52.438;13.240;2023-07-29T01:21:04;100333.84;;;15.87;100.00
75646;BME280;64237;52.438;13.240;2023-07-29T01:23:34;100331.63;;;15.84;100.00
75646;BME280;64237;52.438;13.240;2023-07-29T01:26:00;100335.53;;;15.83;100.00
75646;BME280;64237;52.438;13.240;2023-07-29T01:28:26;100344.25;;;15.76;100.00
75646;BME280;64237;52.438;13.240;2023-07-29T01:30:57;100337.28;;;15.73;100.00
75646;BME280;64237;52.438;13.240;2023-07-29T01:33:26;100341.16;;;15.77;100.00
75646;BME280;64237;52.438;13.240;2023-07-29T01:36:02;100342.28;;;15.76;100.00
75646;BME280;64237;52.438;13.240;2023-07-29T01:38:30;100346.78;;;15.67;100.00
75646;BME280;64237;52.438;13.240;2023-07-29T01:41:00;100345.13;;;15.66;100.00
75646;BME280;64237;52.438;13.240;2023-07-29T01:43:27;100351.25;;;15.68;100.00
75646;BME280;64237;52.438;13.240;2023-07-29T01:45:53;100357.13;;;15.62;100.00
75646;BME280;64237;52.438;13.240;2023-07-29T01:48:18;100352.16;;;15.59;100.00
75646;BME280;64237;52.438;13.240;2023-07-29T01:50:44;100350.72;;;15.61;100.00
75646;BME280;64237;52.438;13.240;2023-07-29T01:53:09;100349.34;;;15.54;100.00
75646;BME280;64237;52.438;13.240;2023-07-29T01:55:34;100354.09;;;15.53;100.00
75646;BME280;64237;52.438;13.240;2023-07-29T01:58:00;100350.75;;;15.51;100.00
75646;BME280;64237;52.438;13.240;2023-07-29T02:00:25;100355.22;;;15.57;100.00
75646;BME280;64237;52.438;13.240;2023-07-29T02:02:50;100342.94;;;15.48;100.00
75646;BME280;64237;52.438;13.240;2023-07-29T02:05:16;100350.75;;;15.51;100.00
75646;BME280;64237;52.438;13.240;2023-07-29T02:07:41;100344.06;;;15.47;100.00
75646;BME280;64237;52.438;13.240;2023-07-29T02:10:07;100347.16;;;15.46;100.00
75646;BME280;64237;52.438;13.240;2023-07-29T02:12:33;100352.44;;;15.42;100.00
75646;BME280;64237;52.438;13.240;2023-07-29T02:14:58;100353.00;;;15.39;100.00
75646;BME280;64237;52.438;13.240;2023-07-29T02:17:23;100357.50;;;15.35;100.00
75646;BME280;64237;52.438;13.240;2023-07-29T02:19:48;100355.00;;;15.33;100.00
75646;BME280;64237;52.438;13.240;2023-07-29T02:22:16;100351.94;;;15.35;100.00
75646;BME280;64237;52.438;13.240;2023-07-29T02:24:41;100348.28;;;15.39;100.00
75646;BME280;64237;52.438;13.240;2023-07-29T02:27:06;100341.28;;;15.42;100.00
75646;BME280;64237;52.438;13.240;2023-07-29T02:29:32;100349.09;;;15.40;100.00
75646;BME280;64237;52.438;13.240;2023-07-29T02:31:58;100352.53;;;15.27;100.00
75646;BME280;64237;52.438;13.240;2023-07-29T02:34:24;100351.94;;;15.35;100.00
75646;BME280;64237;52.438;13.240;2023-07-29T02:36:49;100341.63;;;15.30;100.00
75646;BME280;64237;52.438;13.240;2023-07-29T02:39:15;100343.59;;;15.25;100.00
75646;BME280;64237;52.438;13.240;2023-07-29T02:41:40;100340.88;;;15.15;100.00
75646;BME280;64237;52.438;13.240;2023-07-29T02:44:06;100341.72;;;15.15;100.00
75646;BME280;64237;52.438;13.240;2023-07-29T02:46:31;100339.78;;;15.05;100.00
75646;BME280;64237;52.438;13.240;2023-07-29T02:48:57;100340.88;;;15.09;100.00
75646;BME280;64237;52.438;13.240;2023-07-29T02:51:22;100338.94;;;15.10;100.00
75646;BME280;64237;52.438;13.240;2023-07-29T02:53:47;100348.69;;;15.13;100.00
75646;BME280;64237;52.438;13.240;2023-07-29T02:56:13;100347.56;;;15.14;100.00
75646;BME280;64237;52.438;13.240;2023-07-29T02:58:38;100343.66;;;15.15;100.00
75646;BME280;64237;52.438;13.240;2023-07-29T03:01:05;100347.56;;;15.14;100.00
75646;BME280;64237;52.438;13.240;2023-07-29T03:03:31;100349.22;;;15.15;100.00
75646;BME280;64237;52.438;13.240;2023-07-29T03:06:01;100348.13;;;15.11;100.00
75646;BME280;64237;52.438;13.240;2023-07-29T03:08:27;100343.09;;;15.13;100.00
75646;BME280;64237;52.438;13.240;2023-07-29T03:10:53;100349.25;;;15.09;100.00
75646;BME280;64237;52.438;13.240;2023-07-29T03:13:18;100343.38;;;15.11;100.00
75646;BME280;64237;52.438;13.240;2023-07-29T03:15:44;100351.19;;;15.14;100.00
75646;BME280;64237;52.438;13.240;2023-07-29T03:18:09;100336.13;;;15.10;100.00
75646;BME280;64237;52.438;13.240;2023-07-29T03:20:34;100342.00;;;15.08;100.00
75646;BME280;64237;52.438;13.240;2023-07-29T03:23:00;100328.34;;;15.12;100.00
75646;BME280;64237;52.438;13.240;2023-07-29T03:25:26;100337.50;;;15.18;100.00
75646;BME280;64237;52.438;13.240;2023-07-29T03:27:51;100338.66;;;15.12;100.00
75646;BME280;64237;52.438;13.240;2023-07-29T03:30:19;100338.09;;;15.09;100.00
75646;BME280;64237;52.438;13.240;2023-07-29T03:32:46;100343.66;;;15.09;100.00
75646;BME280;64237;52.438;13.240;2023-07-29T03:35:11;100341.72;;;15.10;100.00
75646;BME280;64237;52.438;13.240;2023-07-29T03:37:36;100348.69;;;15.13;100.00
75646;BME280;64237;52.438;13.240;2023-07-29T03:40:02;100333.63;;;15.14;100.00
75646;BME280;64237;52.438;13.240;2023-07-29T03:42:28;100333.06;;;15.12;100.00
75646;BME280;64237;52.438;13.240;2023-07-29T03:44:53;100335.28;;;15.15;100.00
75646;BME280;64237;52.438;13.240;2023-07-29T03:47:19;100337.53;;;15.13;100.00
75646;BME280;64237;52.438;13.240;2023-07-29T03:49:44;100331.34;;;15.16;100.00
75646;BME280;64237;52.438;13.240;2023-07-29T03:52:09;100328.63;;;15.11;100.00
75646;BME280;64237;52.438;13.240;2023-07-29T03:54:35;100330.28;;;15.12;100.00
75646;BME280;64237;52.438;13.240;2023-07-29T03:57:00;100330.25;;;15.17;100.00
75646;BME280;64237;52.438;13.240;2023-07-29T03:59:26;100328.28;;;15.17;100.00
75646;BME280;64237;52.438;13.240;2023-07-29T04:01:51;100330.22;;;15.22;100.00
75646;BME280;64237;52.438;13.240;2023-07-29T04:04:16;100324.09;;;15.25;100.00
75646;BME280;64237;52.438;13.240;2023-07-29T04:06:42;100316.00;;;15.28;100.00
75646;BME280;64237;52.438;13.240;2023-07-29T04:09:07;100316.00;;;15.33;100.00
75646;BME280;64237;52.438;13.240;2023-07-29T04:11:33;100325.75;;;15.36;100.00
75646;BME280;64237;52.438;13.240;2023-07-29T04:13:58;100312.00;;;15.44;100.00
75646;BME280;64237;52.438;13.240;2023-07-29T04:16:24;100318.69;;;15.49;100.00
75646;BME280;64237;52.438;13.240;2023-07-29T04:18:49;100322.31;;;15.49;100.00
75646;BME280;64237;52.438;13.240;2023-07-29T04:21:14;100319.81;;;15.58;100.00
75646;BME280;64237;52.438;13.240;2023-07-29T04:23:40;100328.41;;;15.61;100.00
75646;BME280;64237;52.438;13.240;2023-07-29T04:26:05;100334.25;;;15.65;100.00
75646;BME280;64237;52.438;13.240;2023-07-29T04:28:31;100320.03;;;15.66;100.00
75646;BME280;64237;52.438;13.240;2023-07-29T04:30:56;100318.91;;;15.62;100.00
75646;BME280;64237;52.438;13.240;2023-07-29T04:33:21;100318.91;;;15.62;100.00
75646;BME280;64237;52.438;13.240;2023-07-29T04:35:47;100318.91;;;15.67;100.00
75646;BME280;64237;52.438;13.240;2023-07-29T04:38:12;100331.69;;;15.73;100.00
75646;BME280;64237;52.438;13.240;2023-07-29T04:40:37;100323.34;;;15.73;100.00
75646;BME280;64237;52.438;13.240;2023-07-29T04:43:03;100333.88;;;15.82;100.00
75646;BME280;64237;52.438;13.240;2023-07-29T04:45:29;100324.91;;;15.90;100.00
75646;BME280;64237;52.438;13.240;2023-07-29T04:47:54;100328.19;;;16.02;100.00
75646;BME280;64237;52.438;13.240;2023-07-29T04:50:20;100332.59;;;16.08;100.00
75646;BME280;64237;52.438;13.240;2023-07-29T04:52:45;100330.88;;;16.12;100.00
75646;BME280;64237;52.438;13.240;2023-07-29T04:55:11;100327.50;;;16.15;100.00
75646;BME280;64237;52.438;13.240;2023-07-29T04:57:36;100332.53;;;16.18;100.00
75646;BME280;64237;52.438;13.240;2023-07-29T05:00:02;100326.38;;;16.21;100.00
75646;BME280;64237;52.438;13.240;2023-07-29T05:02:28;100327.19;;;16.22;100.00
75646;BME280;64237;52.438;13.240;2023-07-29T05:04:53;100313.19;;;16.27;100.00
75646;BME280;64237;52.438;13.240;2023-07-29T05:07:18;100316.72;;;16.37;100.00
75646;BME280;64237;52.438;13.240;2023-07-29T05:09:44;100310.41;;;16.56;100.00
75646;BME280;64237;52.438;13.240;2023-07-29T05:12:09;100303.03;;;16.70;100.00
75646;BME280;64237;52.438;13.240;2023-07-29T05:14:35;100298.47;;;16.79;100.00
75646;BME280;64237;52.438;13.240;2023-07-29T05:17:00;100302.06;;;16.85;100.00
75646;BME280;64237;52.438;13.240;2023-07-29T05:19:26;100310.69;;;16.88;100.00
75646;BME280;64237;52.438;13.240;2023-07-29T05:21:51;100311.09;;;17.24;100.00
75646;BME280;64237;52.438;13.240;2023-07-29T05:24:17;100317.94;;;17.56;100.00
75646;BME280;64237;52.438;13.240;2023-07-29T05:26:42;100325.66;;;17.88;100.00
75646;BME280;64237;52.438;13.240;2023-07-29T05:29:07;100326.09;;;18.32;100.00
75646;BME280;64237;52.438;13.240;2023-07-29T05:31:33;100317.25;;;18.58;100.00
75646;BME280;64237;52.438;13.240;2023-07-29T05:33:58;100311.09;;;18.88;100.00
75646;BME280;64237;52.438;13.240;2023-07-29T05:36:24;100319.03;;;19.00;100.00
75646;BME280;64237;52.438;13.240;2023-07-29T05:38:50;100319.53;;;19.02;100.00
75646;BME280;64237;52.438;13.240;2023-07-29T05:41:16;100319.81;;;18.73;100.00
75646;BME280;64237;52.438;13.240;2023-07-29T05:43:41;100317.75;;;18.92;100.00
75646;BME280;64237;52.438;13.240;2023-07-29T05:46:08;100308.03;;;19.17;100.00
75646;BME280;64237;52.438;13.240;2023-07-29T05:48:34;100309.78;;;18.99;100.00
75646;BME280;64237;52.438;13.240;2023-07-29T05:50:59;100309.88;;;19.22;100.00
75646;BME280;64237;52.438;13.240;2023-07-29T05:53:24;100303.75;;;19.20;100.00
75646;BME280;64237;52.438;13.240;2023-07-29T05:55:50;100295.44;;;19.14;100.00
75646;BME280;64237;52.438;13.240;2023-07-29T05:58:15;100296.78;;;19.17;100.00
75646;BME280;64237;52.438;13.240;2023-07-29T06:00:41;100292.03;;;19.17;100.00
75646;BME280;64237;52.438;13.240;2023-07-29T06:03:06;100283.47;;;19.36;100.00
75646;BME280;64237;52.438;13.240;2023-07-29T06:05:31;100278.28;;;19.30;100.00
75646;BME280;64237;52.438;13.240;2023-07-29T06:07:57;100279.03;;;18.94;100.00
75646;BME280;64237;52.438;13.240;2023-07-29T06:10:22;100275.00;;;19.00;100.00
75646;BME280;64237;52.438;13.240;2023-07-29T06:12:47;100271.16;;;19.24;100.00
75646;BME280;64237;52.438;13.240;2023-07-29T06:15:13;100267.59;;;19.32;100.00
75646;BME280;64237;52.438;13.240;2023-07-29T06:17:39;100270.38;;;19.32;100.00
75646;BME280;64237;52.438;13.240;2023-07-29T06:20:06;100277.66;;;19.33;100.00
75646;BME280;64237;52.438;13.240;2023-07-29T06:22:31;100280.81;;;19.17;100.00
75646;BME280;64237;52.438;13.240;2023-07-29T06:24:57;100287.66;;;19.11;100.00
75646;BME280;64237;52.438;13.240;2023-07-29T06:27:22;100288.16;;;19.13;100.00
75646;BME280;64237;52.438;13.240;2023-07-29T06:29:47;100292.63;;;19.14;100.00
75646;BME280;64237;52.438;13.240;2023-07-29T06:32:13;100293.25;;;19.11;100.00
75646;BME280;64237;52.438;13.240;2023-07-29T06:34:38;100294.91;;;19.12;100.00
75646;BME280;64237;52.438;13.240;2023-07-29T06:37:04;100301.88;;;19.29;100.00
75646;BME280;64237;52.438;13.240;2023-07-29T06:39:29;100307.19;;;19.44;100.00
75646;BME280;64237;52.438;13.240;2023-07-29T06:41:54;100300.53;;;19.54;100.00
75646;BME280;64237;52.438;13.240;2023-07-29T06:44:19;100297.22;;;19.65;100.00
75646;BME280;64237;52.438;13.240;2023-07-29T06:46:45;100310.72;;;19.63;100.00
75646;BME280;64237;52.438;13.240;2023-07-29T06:49:11;100319.41;;;19.75;100.00
75646;BME280;64237;52.438;13.240;2023-07-29T06:51:36;100304.75;;;19.78;100.00
75646;BME280;64237;52.438;13.240;2023-07-29T06:54:02;100320.88;;;19.87;100.00
75646;BME280;64237;52.438;13.240;2023-07-29T06:56:28;100312.97;;;19.89;100.00
75646;BME280;64237;52.438;13.240;2023-07-29T06:58:53;100315.63;;;19.94;100.00
75646;BME280;64237;52.438;13.240;2023-07-29T07:01:19;100309.19;;;19.93;100.00
75646;BME280;64237;52.438;13.240;2023-07-29T07:03:44;100304.00;;;19.87;100.00
75646;BME280;64237;52.438;13.240;2023-07-29T07:06:09;100310.00;;;19.94;100.00
75646;BME280;64237;52.438;13.240;2023-07-29T07:08:35;100306.25;;;19.98;100.00
75646;BME280;64237;52.438;13.240;2023-07-29T07:11:00;100313.50;;;20.13;100.00
75646;BME280;64237;52.438;13.240;2023-07-29T07:13:25;100309.91;;;20.21;100.00
75646;BME280;64237;52.438;13.240;2023-07-29T07:15:54;100313.88;;;20.20;100.00
75646;BME280;64237;52.438;13.240;2023-07-29T07:18:19;100307.00;;;20.26;100.00
75646;BME280;64237;52.438;13.240;2023-07-29T07:20:48;100304.41;;;20.16;100.00
75646;BME280;64237;52.438;13.240;2023-07-29T07:23:14;100309.81;;;20.26;100.00
75646;BME280;64237;52.438;13.240;2023-07-29T07:25:40;100313.25;;;20.23;100.00
75646;BME280;64237;52.438;13.240;2023-07-29T07:28:07;100311.94;;;20.43;100.00
75646;BME280;64237;52.438;13.240;2023-07-29T07:30:32;100301.28;;;20.53;100.00
75646;BME280;64237;52.438;13.240;2023-07-29T07:32:57;100300.75;;;20.51;100.00
75646;BME280;64237;52.438;13.240;2023-07-29T07:35:23;100304.59;;;20.56;100.00
75646;BME280;64237;52.438;13.240;2023-07-29T07:37:48;100299.13;;;20.59;100.00
75646;BME280;64237;52.438;13.240;2023-07-29T07:40:13;100290.56;;;20.64;100.00
75646;BME280;64237;52.438;13.240;2023-07-29T07:42:39;100286.06;;;20.85;100.00
75646;BME280;64237;52.438;13.240;2023-07-29T07:45:04;100295.25;;;21.00;100.00
75646;BME280;64237;52.438;13.240;2023-07-29T07:47:30;100282.59;;;21.19;100.00
75646;BME280;64237;52.438;13.240;2023-07-29T07:49:55;100282.16;;;21.35;100.00
75646;BME280;64237;52.438;13.240;2023-07-29T07:52:20;100282.66;;;21.45;100.00
75646;BME280;64237;52.438;13.240;2023-07-29T07:54:51;100285.28;;;21.33;100.00
75646;BME280;64237;52.438;13.240;2023-07-29T07:57:17;100287.41;;;21.28;100.00
75646;BME280;64237;52.438;13.240;2023-07-29T07:59:42;100287.13;;;21.38;100.00
75646;BME280;64237;52.438;13.240;2023-07-29T08:02:08;100283.88;;;21.62;100.00
75646;BME280;64237;52.438;13.240;2023-07-29T08:04:33;100282.88;;;21.66;100.00
75646;BME280;64237;52.438;13.240;2023-07-29T08:06:58;100281.25;;;21.82;99.85
75646;BME280;64237;52.438;13.240;2023-07-29T08:09:24;100286.59;;;22.10;95.02
75646;BME280;64237;52.438;13.240;2023-07-29T08:11:49;100276.47;;;22.09;96.90
75646;BME280;64237;52.438;13.240;2023-07-29T08:14:14;100274.63;;;22.30;100.00
75646;BME280;64237;52.438;13.240;2023-07-29T08:16:39;100278.31;;;22.05;93.97
75646;BME280;64237;52.438;13.240;2023-07-29T08:19:05;100273.44;;;21.88;95.59
75646;BME280;64237;52.438;13.240;2023-07-29T08:21:30;100278.25;;;21.70;99.53
75646;BME280;64237;52.438;13.240;2023-07-29T08:23:55;100272.94;;;21.60;98.31
75646;BME280;64237;52.438;13.240;2023-07-29T08:26:21;100272.09;;;21.51;100.00
75646;BME280;64237;52.438;13.240;2023-07-29T08:28:48;100268.63;;;21.54;100.00
75646;BME280;64237;52.438;13.240;2023-07-29T08:31:13;100271.28;;;21.59;100.00
75646;BME280;64237;52.438;13.240;2023-07-29T08:33:38;100267.50;;;21.64;97.95
75646;BME280;64237;52.438;13.240;2023-07-29T08:36:04;100262.47;;;21.52;100.00
75646;BME280;64237;52.438;13.240;2023-07-29T08:38:29;100259.66;;;21.52;100.00
75646;BME280;64237;52.438;13.240;2023-07-29T08:41:16;100262.19;;;21.62;98.17
75646;BME280;64237;52.438;13.240;2023-07-29T08:43:52;100257.72;;;21.78;99.75
75646;BME280;64237;52.438;13.240;2023-07-29T08:46:19;100259.22;;;21.84;100.00
75646;BME280;64237;52.438;13.240;2023-07-29T08:48:45;100257.06;;;21.99;97.73
75646;BME280;64237;52.438;13.240;2023-07-29T08:51:12;100252.09;;;22.13;97.86
75646;BME280;64237;52.438;13.240;2023-07-29T08:53:39;100257.06;;;22.33;95.28
75646;BME280;64237;52.438;13.240;2023-07-29T08:56:05;100253.72;;;22.48;96.89
75646;BME280;64237;52.438;13.240;2023-07-29T08:58:31;100263.19;;;22.44;96.77
75646;BME280;64237;52.438;13.240;2023-07-29T09:00:57;100251.75;;;22.49;95.13
75646;BME280;64237;52.438;13.240;2023-07-29T09:03:22;100244.06;;;22.58;94.64
75646;BME280;64237;52.438;13.240;2023-07-29T09:05:48;100243.88;;;22.63;93.99
75646;BME280;64237;52.438;13.240;2023-07-29T09:08:14;100248.69;;;22.71;94.46
75646;BME280;64237;52.438;13.240;2023-07-29T09:10:40;100241.19;;;22.75;92.68
75646;BME280;64237;52.438;13.240;2023-07-29T09:13:06;100243.38;;;22.78;91.03
75646;BME280;64237;52.438;13.240;2023-07-29T09:15:34;100234.22;;;22.81;89.83
75646;BME280;64237;52.438;13.240;2023-07-29T09:18:09;100240.25;;;23.09;87.95
75646;BME280;64237;52.438;13.240;2023-07-29T09:20:34;100237.25;;;23.14;87.86
75646;BME280;64237;52.438;13.240;2023-07-29T09:23:00;100230.78;;;23.14;90.09
75646;BME280;64237;52.438;13.240;2023-07-29T09:25:26;100238.44;;;23.05;87.69
75646;BME280;64237;52.438;13.240;2023-07-29T09:27:52;100226.50;;;22.99;86.81
75646;BME280;64237;52.438;13.240;2023-07-29T09:30:17;100224.19;;;23.01;88.49
75646;BME280;64237;52.438;13.240;2023-07-29T09:32:43;100213.56;;;22.98;88.98
75646;BME280;64237;52.438;13.240;2023-07-29T09:35:12;100217.72;;;23.01;92.37
75646;BME280;64237;52.438;13.240;2023-07-29T09:37:38;100216.69;;;23.05;84.61
75646;BME280;64237;52.438;13.240;2023-07-29T09:40:05;100216.59;;;23.22;86.81
75646;BME280;64237;52.438;13.240;2023-07-29T09:42:31;100212.97;;;23.43;88.37
75646;BME280;64237;52.438;13.240;2023-07-29T09:44:56;100214.31;;;23.87;87.21
75646;BME280;64237;52.438;13.240;2023-07-29T09:47:22;100215.72;;;24.02;81.71
75646;BME280;64237;52.438;13.240;2023-07-29T09:49:49;100202.75;;;24.01;84.96
75646;BME280;64237;52.438;13.240;2023-07-29T09:52:16;100208.41;;;24.01;79.94
75646;BME280;64237;52.438;13.240;2023-07-29T09:54:43;100208.41;;;24.01;81.52
75646;BME280;64237;52.438;13.240;2023-07-29T09:57:10;100195.47;;;23.79;81.47
75646;BME280;64237;52.438;13.240;2023-07-29T09:59:36;100197.38;;;23.66;83.53
75646;BME280;64237;52.438;13.240;2023-07-29T10:02:01;100194.56;;;23.66;83.00
75646;BME280;64237;52.438;13.240;2023-07-29T10:04:27;100195.13;;;23.80;80.07
75646;BME280;64237;52.438;13.240;2023-07-29T10:06:54;100195.13;;;23.80;81.31
75646;BME280;64237;52.438;13.240;2023-07-29T10:09:20;100183.19;;;23.75;83.55
75646;BME280;64237;52.438;13.240;2023-07-29T10:11:46;100177.56;;;23.54;82.90
75646;BME280;64237;52.438;13.240;2023-07-29T10:14:11;100179.44;;;23.83;84.87
75646;BME280;64237;52.438;13.240;2023-07-29T10:16:37;100165.81;;;23.85;78.94
75646;BME280;64237;52.438;13.240;2023-07-29T10:19:04;100162.91;;;23.93;80.57
75646;BME280;64237;52.438;13.240;2023-07-29T10:21:30;100166.31;;;24.20;79.14
75646;BME280;64237;52.438;13.240;2023-07-29T10:24:00;100169.47;;;24.18;79.99
75646;BME280;64237;52.438;13.240;2023-07-29T10:26:28;100173.53;;;23.97;78.22
75646;BME280;64237;52.438;13.240;2023-07-29T10:28:56;100158.28;;;23.89;81.22
75646;BME280;64237;52.438;13.240;2023-07-29T10:31:27;100163.31;;;23.83;77.72
75646;BME280;64237;52.438;13.240;2023-07-29T10:33:54;100162.78;;;23.69;79.12
75646;BME280;64237;52.438;13.240;2023-07-29T10:36:20;100156.63;;;23.55;77.87
75646;BME280;64237;52.438;13.240;2023-07-29T10:38:45;100159.00;;;23.65;77.90
75646;BME280;64237;52.438;13.240;2023-07-29T10:41:10;100156.03;;;23.62;79.63
75646;BME280;64237;52.438;13.240;2023-07-29T10:43:37;100148.47;;;23.53;77.88
75646;BME280;64237;52.438;13.240;2023-07-29T10:46:21;100125.56;;;23.46;80.31
75646;BME280;64237;52.438;13.240;2023-07-29T10:51:34;100116.06;;;23.09;79.37
75646;BME280;64237;52.438;13.240;2023-07-29T10:54:04;100133.78;;;22.89;80.99
75646;BME280;64237;52.438;13.240;2023-07-29T10:56:36;100156.13;;;22.65;83.05
75646;BME280;64237;52.438;13.240;2023-07-29T11:01:51;100233.53;;;21.95;99.08
75646;BME280;64237;52.438;13.240;2023-07-29T11:12:37;100210.19;;;20.32;100.00
75646;BME280;64237;52.438;13.240;2023-07-29T11:15:23;100195.44;;;20.27;100.00
75646;BME280;64237;52.438;13.240;2023-07-29T11:20:18;100187.31;;;20.47;100.00
75646;BME280;64237;52.438;13.240;2023-07-29T11:22:43;100186.38;;;20.61;100.00
75646;BME280;64237;52.438;13.240;2023-07-29T11:25:11;100177.66;;;20.71;100.00
75646;BME280;64237;52.438;13.240;2023-07-29T11:27:37;100172.97;;;20.58;100.00
75646;BME280;64237;52.438;13.240;2023-07-29T11:30:06;100170.66;;;20.60;100.00
75646;BME280;64237;52.438;13.240;2023-07-29T11:32:32;100183.38;;;20.57;100.00
75646;BME280;64237;52.438;13.240;2023-07-29T11:35:04;100175.94;;;20.52;100.00
75646;BME280;64237;52.438;13.240;2023-07-29T11:37:30;100174.91;;;20.48;100.00
75646;BME280;64237;52.438;13.240;2023-07-29T11:39:55;100177.69;;;20.40;100.00
75646;BME280;64237;52.438;13.240;2023-07-29T11:42:21;100171.84;;;20.36;100.00
75646;BME280;64237;52.438;13.240;2023-07-29T11:44:46;100178.97;;;20.34;100.00
75646;BME280;64237;52.438;13.240;2023-07-29T11:47:12;100164.22;;;20.28;100.00
75646;BME280;64237;52.438;13.240;2023-07-29T11:49:39;100153.03;;;20.37;100.00
75646;BME280;64237;52.438;13.240;2023-07-29T11:52:07;100152.38;;;20.40;100.00
75646;BME280;64237;52.438;13.240;2023-07-29T11:54:35;100148.94;;;20.43;100.00
75646;BME280;64237;52.438;13.240;2023-07-29T11:57:00;100149.34;;;20.36;100.00
75646;BME280;64237;52.438;13.240;2023-07-29T11:59:27;100152.06;;;20.41;100.00
75646;BME280;64237;52.438;13.240;2023-07-29T12:01:53;100150.91;;;20.42;100.00
75646;BME280;64237;52.438;13.240;2023-07-29T12:04:19;100169.44;;;20.43;100.00
75646;BME280;64237;52.438;13.240;2023-07-29T12:06:44;100182.34;;;20.44;100.00
75646;BME280;64237;52.438;13.240;2023-07-29T12:09:10;100175.19;;;20.38;100.00
75646;BME280;64237;52.438;13.240;2023-07-29T12:11:35;100188.69;;;20.36;100.00
75646;BME280;64237;52.438;13.240;2023-07-29T12:14:01;100179.16;;;20.37;100.00
75646;BME280;64237;52.438;13.240;2023-07-29T12:16:26;100179.16;;;20.37;100.00
75646;BME280;64237;52.438;13.240;2023-07-29T12:18:52;100188.09;;;20.39;100.00
75646;BME280;64237;52.438;13.240;2023-07-29T12:21:18;100182.19;;;20.49;100.00
75646;BME280;64237;52.438;13.240;2023-07-29T12:23:44;100187.91;;;20.67;100.00
75646;BME280;64237;52.438;13.240;2023-07-29T12:26:09;100192.09;;;20.86;100.00
75646;BME280;64237;52.438;13.240;2023-07-29T12:28:35;100181.72;;;21.04;100.00
75646;BME280;64237;52.438;13.240;2023-07-29T12:31:00;100178.66;;;21.32;100.00
75646;BME280;64237;52.438;13.240;2023-07-29T12:33:33;100183.81;;;21.47;100.00
75646;BME280;64237;52.438;13.240;2023-07-29T12:35:59;100180.00;;;21.69;100.00
75646;BME280;64237;52.438;13.240;2023-07-29T12:38:28;100181.97;;;21.94;100.00
75646;BME280;64237;52.438;13.240;2023-07-29T12:40:54;100171.16;;;22.39;100.00
75646;BME280;64237;52.438;13.240;2023-07-29T12:43:20;100165.59;;;22.60;100.00
75646;BME280;64237;52.438;13.240;2023-07-29T12:45:46;100163.25;;;22.62;100.00
75646;BME280;64237;52.438;13.240;2023-07-29T12:48:11;100154.81;;;22.53;100.00
75646;BME280;64237;52.438;13.240;2023-07-29T12:50:37;100157.72;;;22.36;100.00